Time;durP1;ratioP1;P1;durP2;ratioP2;P2;SDS_P1;SDS_P2;PMS_P1;PMS_P2;Temp;Humidity;BMP_temperature;BMP_pressure;BME280_temperature;BME280_humidity;BME280_pressure;Samples;Min_cycle;Max_cycle;Signal;HPM_P1;HPM_P2
2023/03/15 00:00:41;;;;;;;20.45;8.52;;;;;;;;;;10477817;28;21348;-77
2023/03/15 00:06:02;;;;;;;12.02;6.45;;;;;;;;;;10485505;28;20593;-77
2023/03/15 00:11:23;;;;;;;24.52;9.45;;;;;;;;;;10477968;28;20629;-77
2023/03/15 00:16:45;;;;;;;28.35;9.73;;;;;;;;;;10493670;27;20032;-77
2023/03/15 00:22:06;;;;;;;21.10;8.20;;;;;;;;;;10473572;28;20032;-76
2023/03/15 00:27:26;;;;;;;19.08;8.25;;;;;;;;;;10479569;28;20044;-76
2023/03/15 00:32:47;;;;;;;19.65;8.38;;;;;;;;;;10468481;28;20043;-77
2023/03/15 00:38:09;;;;;;;23.85;9.50;;;;;;;;;;10473614;28;20042;-77
2023/03/15 00:43:29;;;;;;;16.90;8.18;;;;;;;;;;10510890;28;20035;-77
2023/03/15 00:48:51;;;;;;;11.45;7.30;;;;;;;;;;10534490;27;20521;-77
2023/03/15 00:54:12;;;;;;;17.17;8.20;;;;;;;;;;10502631;28;20048;-77
2023/03/15 00:59:33;;;;;;;12.68;7.50;;;;;;;;;;10518901;28;20025;-77
2023/03/15 01:04:54;;;;;;;15.90;8.25;;;;;;;;;;10504760;28;20028;-77
2023/03/15 01:10:15;;;;;;;17.73;8.85;;;;;;;;;;10507842;28;20037;-78
2023/03/15 01:15:36;;;;;;;34.72;10.93;;;;;;;;;;10476624;28;20028;-79
2023/03/15 01:20:57;;;;;;;17.60;8.10;;;;;;;;;;10487744;28;20052;-80
2023/03/15 01:26:19;;;;;;;20.55;8.82;;;;;;;;;;10466057;28;20035;-79
2023/03/15 01:31:39;;;;;;;22.35;9.68;;;;;;;;;;10464297;28;20040;-78
2023/03/15 01:37:01;;;;;;;18.08;8.27;;;;;;;;;;10476882;28;20028;-78
2023/03/15 01:42:22;;;;;;;17.25;8.23;;;;;;;;;;10502195;28;20039;-78
2023/03/15 01:47:43;;;;;;;17.20;8.38;;;;;;;;;;10483291;28;20482;-77
2023/03/15 01:53:04;;;;;;;26.02;9.75;;;;;;;;;;10467609;28;20524;-78
2023/03/15 01:58:26;;;;;;;18.33;8.70;;;;;;;;;;10501208;28;20925;-78
2023/03/15 02:03:50;;;;;;;15.02;8.25;;;;;;;;;;10493059;28;20028;-77
2023/03/15 02:09:13;;;;;;;24.13;9.73;;;;;;;;;;10474593;28;20493;-77
2023/03/15 02:14:34;;;;;;;26.15;9.93;;;;;;;;;;10493614;28;20024;-78
2023/03/15 02:19:58;;;;;;;22.02;9.18;;;;;;;;;;10469388;28;20071;-78
2023/03/15 02:25:23;;;;;;;18.23;9.55;;;;;;;;;;10477761;28;21729;-78
2023/03/15 02:30:44;;;;;;;19.75;8.35;;;;;;;;;;10488587;28;21451;-79
2023/03/15 02:36:07;;;;;;;23.30;9.32;;;;;;;;;;10483247;28;20058;-78
2023/03/15 02:41:36;;;;;;;19.15;9.00;;;;;;;;;;10497014;28;20646;-79
2023/03/15 02:47:00;;;;;;;14.88;7.97;;;;;;;;;;10474616;28;20564;-78
2023/03/15 02:52:21;;;;;;;22.33;9.40;;;;;;;;;;10479441;28;20421;-78
2023/03/15 02:57:42;;;;;;;31.77;11.15;;;;;;;;;;10474944;28;20032;-79
2023/03/15 03:03:03;;;;;;;26.63;10.23;;;;;;;;;;10465788;28;20051;-74
2023/03/15 03:08:24;;;;;;;22.30;10.23;;;;;;;;;;10497998;28;20028;-75
2023/03/15 03:13:45;;;;;;;32.28;11.48;;;;;;;;;;10474431;28;20039;-75
2023/03/15 03:19:05;;;;;;;28.48;11.57;;;;;;;;;;10479478;28;20044;-75
2023/03/15 03:24:26;;;;;;;16.25;9.25;;;;;;;;;;10484192;28;20111;-75
2023/03/15 03:29:48;;;;;;;16.35;9.65;;;;;;;;;;10496754;28;20024;-75
2023/03/15 03:35:08;;;;;;;28.15;12.23;;;;;;;;;;10490958;28;20040;-75
2023/03/15 03:40:29;;;;;;;15.95;9.73;;;;;;;;;;10499995;28;20051;-75
2023/03/15 03:45:50;;;;;;;23.80;12.18;;;;;;;;;;10500462;28;20035;-75
2023/03/15 03:51:11;;;;;;;24.25;12.18;;;;;;;;;;10488750;28;20051;-75
2023/03/15 03:56:32;;;;;;;29.20;12.30;;;;;;;;;;10495697;28;20480;-75
2023/03/15 04:01:53;;;;;;;24.48;12.13;;;;;;;;;;10466332;28;20051;-75
2023/03/15 04:07:14;;;;;;;26.73;13.68;;;;;;;;;;10488315;28;20047;-75
2023/03/15 04:12:35;;;;;;;43.60;16.50;;;;;;;;;;10482385;28;20040;-75
2023/03/15 04:17:56;;;;;;;37.05;15.18;;;;;;;;;;10479832;28;20037;-75
2023/03/15 04:23:18;;;;;;;38.90;16.60;;;;;;;;;;10459440;28;20063;-75
2023/03/15 04:28:38;;;;;;;34.05;15.55;;;;;;;;;;10491310;28;20040;-76
2023/03/15 04:34:01;;;;;;;38.28;15.38;;;;;;;;;;10476997;28;20036;-76
2023/03/15 04:39:22;;;;;;;42.35;15.32;;;;;;;;;;10487994;28;20024;-75
2023/03/15 04:44:43;;;;;;;27.85;13.73;;;;;;;;;;10496326;28;20171;-76
2023/03/15 04:50:04;;;;;;;29.20;13.77;;;;;;;;;;10507342;28;20036;-76
2023/03/15 04:55:25;;;;;;;31.83;15.05;;;;;;;;;;10478571;28;20094;-76
2023/03/15 05:00:46;;;;;;;31.42;13.77;;;;;;;;;;10495814;28;20032;-76
2023/03/15 05:06:07;;;;;;;20.05;11.48;;;;;;;;;;10489042;28;20500;-76
2023/03/15 05:11:27;;;;;;;42.17;16.67;;;;;;;;;;10488659;28;20039;-75
2023/03/15 05:16:51;;;;;;;47.58;16.90;;;;;;;;;;10478815;28;20028;-76
2023/03/15 05:22:13;;;;;;;29.80;14.05;;;;;;;;;;10463241;28;20032;-76
2023/03/15 05:27:33;;;;;;;36.40;15.05;;;;;;;;;;10473326;28;20044;-75
2023/03/15 05:32:54;;;;;;;39.63;14.20;;;;;;;;;;10494598;27;20041;-76
2023/03/15 05:38:15;;;;;;;29.65;13.60;;;;;;;;;;10477434;28;20643;-76
2023/03/15 05:43:36;;;;;;;32.55;13.73;;;;;;;;;;10483336;28;20036;-76
2023/03/15 05:48:57;;;;;;;36.40;14.82;;;;;;;;;;10471599;28;20041;-75
2023/03/15 05:54:18;;;;;;;35.58;14.70;;;;;;;;;;10486095;28;20056;-75
2023/03/15 05:59:39;;;;;;;24.52;13.50;;;;;;;;;;10490142;28;20079;-75
2023/03/15 06:05:00;;;;;;;28.75;12.88;;;;;;;;;;10486121;28;20032;-75
2023/03/15 06:10:21;;;;;;;40.05;14.57;;;;;;;;;;10492252;28;20035;-76
2023/03/15 06:15:42;;;;;;;36.97;15.00;;;;;;;;;;10473695;28;20461;-76
2023/03/15 06:21:03;;;;;;;47.25;17.58;;;;;;;;;;10508866;28;20516;-76
2023/03/15 06:26:24;;;;;;;28.80;12.55;;;;;;;;;;10485172;28;20032;-76
2023/03/15 06:31:46;;;;;;;25.95;12.13;;;;;;;;;;10487101;28;20505;-75
2023/03/15 06:37:07;;;;;;;35.58;14.73;;;;;;;;;;10495210;28;20020;-75
2023/03/15 06:42:28;;;;;;;37.83;15.27;;;;;;;;;;10495335;28;20037;-75
2023/03/15 06:47:49;;;;;;;43.78;16.52;;;;;;;;;;10485001;28;20047;-75
2023/03/15 06:53:10;;;;;;;33.92;14.90;;;;;;;;;;10479103;28;20496;-75
2023/03/15 06:58:31;;;;;;;35.65;14.90;;;;;;;;;;10496918;28;20102;-75
2023/03/15 07:03:52;;;;;;;32.95;15.30;;;;;;;;;;10497534;28;20766;-75
2023/03/15 07:09:13;;;;;;;27.17;13.63;;;;;;;;;;10515035;27;20043;-75
2023/03/15 07:14:34;;;;;;;31.92;15.88;;;;;;;;;;10484717;28;20032;-75
2023/03/15 07:19:55;;;;;;;36.30;14.82;;;;;;;;;;10515327;27;20036;-76
2023/03/15 07:25:22;;;;;;;23.77;12.30;;;;;;;;;;10496741;28;20520;-76
2023/03/15 07:30:50;;;;;;;18.70;10.68;;;;;;;;;;10498167;28;20047;-76
2023/03/15 07:36:11;;;;;;;20.45;10.98;;;;;;;;;;10489872;28;20043;-76
2023/03/15 07:41:32;;;;;;;24.73;11.75;;;;;;;;;;10499237;28;20089;-76
2023/03/15 07:46:54;;;;;;;13.88;9.02;;;;;;;;;;10512550;28;20145;-76
2023/03/15 07:52:15;;;;;;;14.75;8.18;;;;;;;;;;10512692;28;20074;-76
2023/03/15 07:57:36;;;;;;;18.42;9.20;;;;;;;;;;10512817;28;20028;-73
2023/03/15 08:02:57;;;;;;;21.45;9.10;;;;;;;;;;10516348;28;20027;-74
2023/03/15 08:08:18;;;;;;;13.50;7.47;;;;;;;;;;10506035;28;20036;-74
2023/03/15 08:13:40;;;;;;;14.10;7.55;;;;;;;;;;10490866;28;20035;-74
2023/03/15 08:19:01;;;;;;;19.08;8.07;;;;;;;;;;10509567;28;20039;-74
2023/03/15 08:24:22;;;;;;;12.25;6.65;;;;;;;;;;10497919;28;20025;-74
2023/03/15 08:29:43;;;;;;;11.05;6.28;;;;;;;;;;10486914;28;20054;-74
2023/03/15 08:35:04;;;;;;;16.35;6.95;;;;;;;;;;10515848;28;20039;-74
2023/03/15 08:40:25;;;;;;;18.70;6.15;;;;;;;;;;10512343;28;20033;-74
2023/03/15 08:45:47;;;;;;;20.88;6.97;;;;;;;;;;10503861;28;20051;-75
2023/03/15 08:51:08;;;;;;;15.85;5.68;;;;;;;;;;10536322;28;20047;-75
2023/03/15 08:56:31;;;;;;;13.85;5.20;;;;;;;;;;10550728;28;20024;-75
2023/03/15 09:01:52;;;;;;;14.48;5.60;;;;;;;;;;10482147;28;20524;-75
2023/03/15 09:07:14;;;;;;;15.35;5.10;;;;;;;;;;10509025;28;20039;-75
2023/03/15 09:12:35;;;;;;;22.55;7.07;;;;;;;;;;10497807;28;20037;-74
2023/03/15 09:17:56;;;;;;;12.85;5.38;;;;;;;;;;10493703;28;20433;-74
2023/03/15 09:23:16;;;;;;;23.02;7.00;;;;;;;;;;10516972;28;20128;-72
2023/03/15 09:28:37;;;;;;;19.73;5.10;;;;;;;;;;10514684;28;20032;-74
2023/03/15 09:33:58;;;;;;;12.18;5.22;;;;;;;;;;10492846;28;20040;-74
2023/03/15 09:39:20;;;;;;;17.58;5.82;;;;;;;;;;10506370;28;20532;-74
2023/03/15 09:44:49;;;;;;;22.58;6.60;;;;;;;;;;10493412;28;20044;-74
2023/03/15 09:50:18;;;;;;;11.93;4.93;;;;;;;;;;10517123;28;20036;-73
2023/03/15 09:55:40;;;;;;;13.82;5.05;;;;;;;;;;10499358;28;20032;-75
2023/03/15 10:01:03;;;;;;;20.33;5.53;;;;;;;;;;10498410;28;20533;-73
2023/03/15 10:06:27;;;;;;;21.15;6.10;;;;;;;;;;10520515;28;20035;-74
2023/03/15 10:11:51;;;;;;;21.40;6.03;;;;;;;;;;10525715;28;20028;-74
2023/03/15 10:17:14;;;;;;;12.90;5.88;;;;;;;;;;10492525;28;20025;-73
2023/03/15 10:22:39;;;;;;;13.88;6.30;;;;;;;;;;10491193;28;20036;-74
2023/03/15 10:28:00;;;;;;;18.15;7.35;;;;;;;;;;10511480;28;20394;-74
2023/03/15 10:33:31;;;;;;;19.70;8.13;;;;;;;;;;10510035;28;20040;-74
2023/03/15 10:38:52;;;;;;;;;;;;;;;;;;10486147;28;20028;-74
2023/03/15 10:44:23;;;;;;;14.02;6.60;;;;;;;;;;10537467;28;19923;-74
2023/03/15 10:49:44;;;;;;;;;;;;;;;;;;10528741;28;20035;-74
2023/03/15 10:55:06;;;;;;;13.70;5.70;;;;;;;;;;10520442;28;19916;-74
2023/03/15 11:00:31;;;;;;;17.40;6.93;;;;;;;;;;10518744;28;20032;-74
2023/03/15 11:05:54;;;;;;;17.88;7.18;;;;;;;;;;10511720;28;20039;-74
2023/03/15 11:11:14;;;;;;;10.50;6.20;;;;;;;;;;10521742;28;20048;-74
2023/03/15 11:16:36;;;;;;;13.13;6.03;;;;;;;;;;10527842;28;20534;-74
2023/03/15 11:21:57;;;;;;;9.30;6.22;;;;;;;;;;10509419;28;20074;-74
2023/03/15 11:27:21;;;;;;;11.15;5.57;;;;;;;;;;10530473;28;20040;-75
2023/03/15 11:32:42;;;;;;;10.90;5.63;;;;;;;;;;10512143;28;20043;-74
2023/03/15 11:38:11;;;;;;;11.73;5.93;;;;;;;;;;10535891;28;20038;-74
2023/03/15 11:43:37;;;;;;;10.98;5.25;;;;;;;;;;10520154;28;20378;-75
2023/03/15 11:49:01;;;;;;;11.35;5.78;;;;;;;;;;10503493;28;20429;-74
2023/03/15 11:54:23;;;;;;;10.05;5.28;;;;;;;;;;10508122;28;20055;-74
2023/03/15 11:59:45;;;;;;;11.02;4.93;;;;;;;;;;10515773;28;20043;-74
2023/03/15 12:05:06;;;;;;;14.65;5.75;;;;;;;;;;10508385;28;20048;-75
2023/03/15 12:10:32;;;;;;;9.60;5.13;;;;;;;;;;10519983;27;20511;-74
2023/03/15 12:15:53;;;;;;;11.80;5.53;;;;;;;;;;10497004;28;20075;-75
2023/03/15 12:21:16;;;;;;;8.63;5.22;;;;;;;;;;10527656;28;20020;-74
2023/03/15 12:26:40;;;;;;;9.75;5.00;;;;;;;;;;10523354;28;20779;-74
2023/03/15 12:32:00;;;;;;;10.98;5.30;;;;;;;;;;10512481;28;20143;-74
2023/03/15 12:37:23;;;;;;;12.10;5.00;;;;;;;;;;10504293;28;20032;-74
2023/03/15 12:42:47;;;;;;;11.40;4.70;;;;;;;;;;10523905;28;20047;-74
2023/03/15 12:48:11;;;;;;;10.98;4.85;;;;;;;;;;10495261;28;20047;-74
2023/03/15 12:53:38;;;;;;;7.95;5.22;;;;;;;;;;10504085;28;20056;-74
2023/03/15 12:59:03;;;;;;;9.80;4.80;;;;;;;;;;10498008;28;20037;-74
2023/03/15 13:04:26;;;;;;;9.80;4.93;;;;;;;;;;10524076;28;20032;-74
2023/03/15 13:10:04;;;;;;;10.77;4.40;;;;;;;;;;10530554;28;20069;-74
2023/03/15 13:15:28;;;;;;;9.57;4.93;;;;;;;;;;10532376;28;20047;-74
2023/03/15 13:21:05;;;;;;;9.75;4.32;;;;;;;;;;10516629;28;20036;-74
2023/03/15 13:26:32;;;;;;;8.00;4.78;;;;;;;;;;10516289;28;20040;-74
2023/03/15 13:31:59;;;;;;;10.93;4.65;;;;;;;;;;10518371;28;20028;-74
2023/03/15 13:37:21;;;;;;;14.85;5.97;;;;;;;;;;10521592;28;20086;-74
2023/03/15 13:42:42;;;;;;;12.55;5.18;;;;;;;;;;10569639;28;20807;-74
2023/03/15 13:48:03;;;;;;;8.45;4.80;;;;;;;;;;10512129;28;20039;-75
2023/03/15 13:53:25;;;;;;;10.30;5.28;;;;;;;;;;10547805;28;20048;-74
2023/03/15 13:58:46;;;;;;;6.05;4.28;;;;;;;;;;10513938;28;20043;-74
2023/03/15 14:04:11;;;;;;;9.20;4.63;;;;;;;;;;10514640;28;20036;-74
2023/03/15 14:09:32;;;;;;;11.90;5.07;;;;;;;;;;10506495;28;20041;-75
2023/03/15 14:14:53;;;;;;;10.20;5.10;;;;;;;;;;10504369;28;20043;-75
2023/03/15 14:20:14;;;;;;;11.98;6.20;;;;;;;;;;10493753;28;20038;-75
2023/03/15 14:25:35;;;;;;;18.08;6.60;;;;;;;;;;10499597;28;20616;-76
2023/03/15 14:30:57;;;;;;;11.02;4.90;;;;;;;;;;10527099;28;20035;-76
2023/03/15 14:36:23;;;;;;;12.75;6.00;;;;;;;;;;10517758;28;20028;-77
2023/03/15 14:41:44;;;;;;;9.23;5.32;;;;;;;;;;10494164;28;20033;-76
2023/03/15 14:47:15;;;;;;;10.27;5.28;;;;;;;;;;10493723;28;20032;-76
2023/03/15 14:52:36;;;;;;;21.47;7.90;;;;;;;;;;10504735;28;20056;-77
2023/03/15 14:57:57;;;;;;;18.83;6.82;;;;;;;;;;10502133;28;20433;-77
2023/03/15 15:03:18;;;;;;;19.77;6.95;;;;;;;;;;10492774;28;20516;-78
2023/03/15 15:08:41;;;;;;;19.83;7.32;;;;;;;;;;10506010;28;20031;-77
2023/03/15 15:14:01;;;;;;;13.95;6.03;;;;;;;;;;10519380;28;20055;-76
2023/03/15 15:19:22;;;;;;;19.17;6.25;;;;;;;;;;10510135;28;20070;-77
2023/03/15 15:24:43;;;;;;;7.30;4.65;;;;;;;;;;10506517;28;20102;-78
2023/03/15 15:30:05;;;;;;;7.35;4.80;;;;;;;;;;10517098;28;20435;-77
2023/03/15 15:35:26;;;;;;;20.90;8.00;;;;;;;;;;10499787;28;20039;-77
2023/03/15 15:40:47;;;;;;;15.73;6.78;;;;;;;;;;10513747;28;20040;-77
2023/03/15 15:46:10;;;;;;;17.60;7.07;;;;;;;;;;10489995;28;20028;-77
2023/03/15 15:51:34;;;;;;;16.75;6.75;;;;;;;;;;10503829;28;20525;-76
2023/03/15 15:56:56;;;;;;;15.13;6.20;;;;;;;;;;10498986;28;20060;-76
2023/03/15 16:02:20;;;;;;;12.25;6.10;;;;;;;;;;10498753;28;20067;-76
2023/03/15 16:07:41;;;;;;;11.40;5.50;;;;;;;;;;10491421;28;20059;-74
2023/03/15 16:13:03;;;;;;;13.30;5.35;;;;;;;;;;10517943;27;20503;-77
2023/03/15 16:18:24;;;;;;;13.23;6.38;;;;;;;;;;10524065;28;20020;-77
2023/03/15 16:23:48;;;;;;;8.70;5.07;;;;;;;;;;10539655;28;20040;-77
2023/03/15 16:29:14;;;;;;;11.77;5.50;;;;;;;;;;10526581;28;20422;-77
2023/03/15 16:34:35;;;;;;;6.18;4.82;;;;;;;;;;10502171;28;20520;-78
2023/03/15 16:39:58;;;;;;;15.45;6.63;;;;;;;;;;10522366;28;20024;-77
2023/03/15 16:45:20;;;;;;;12.10;5.97;;;;;;;;;;10525503;28;20033;-78
2023/03/15 16:50:41;;;;;;;12.98;6.60;;;;;;;;;;10519370;28;20039;-78
2023/03/15 16:56:04;;;;;;;21.98;9.77;;;;;;;;;;10528925;28;20266;-78
2023/03/15 17:01:27;;;;;;;27.90;10.27;;;;;;;;;;10502469;28;20027;-78
2023/03/15 17:06:48;;;;;;;22.30;8.88;;;;;;;;;;10521105;28;20032;-78
2023/03/15 17:12:12;;;;;;;22.17;9.23;;;;;;;;;;10512323;28;20036;-76
2023/03/15 17:17:35;;;;;;;43.67;13.60;;;;;;;;;;10527828;28;20035;-78
2023/03/15 17:22:57;;;;;;;13.00;6.45;;;;;;;;;;10527046;28;20096;-78
2023/03/15 17:28:18;;;;;;;19.75;8.30;;;;;;;;;;10517136;28;20036;-78
2023/03/15 17:33:40;;;;;;;10.98;6.65;;;;;;;;;;10513014;28;20032;-77
2023/03/15 17:39:01;;;;;;;17.70;7.15;;;;;;;;;;10516603;28;20551;-77
2023/03/15 17:44:22;;;;;;;9.63;5.72;;;;;;;;;;10542738;28;20036;-77
2023/03/15 17:49:43;;;;;;;10.63;6.57;;;;;;;;;;10525264;28;20398;-77
2023/03/15 17:55:05;;;;;;;12.85;6.80;;;;;;;;;;10528318;28;20432;-77
2023/03/15 18:00:26;;;;;;;12.23;6.60;;;;;;;;;;10531788;28;20047;-77
2023/03/15 18:05:47;;;;;;;11.82;6.40;;;;;;;;;;10506477;28;20036;-77
2023/03/15 18:11:22;;;;;;;13.93;7.45;;;;;;;;;;10503367;28;20032;-78
2023/03/15 18:16:43;;;;;;;13.05;7.15;;;;;;;;;;10490011;28;20040;-78
2023/03/15 18:22:04;;;;;;;19.95;8.20;;;;;;;;;;10512683;28;20595;-78
2023/03/15 18:27:25;;;;;;;23.10;9.23;;;;;;;;;;10512369;28;20040;-78
2023/03/15 18:32:47;;;;;;;13.80;7.15;;;;;;;;;;10511147;28;20401;-77
2023/03/15 18:38:08;;;;;;;15.80;7.85;;;;;;;;;;10508144;28;20040;-77
2023/03/15 18:43:28;;;;;;;14.75;8.07;;;;;;;;;;10515445;28;20040;-77
2023/03/15 18:48:52;;;;;;;16.55;8.07;;;;;;;;;;10494862;28;20492;-77
2023/03/15 18:54:13;;;;;;;17.33;8.25;;;;;;;;;;10496400;28;20497;-77
2023/03/15 18:59:33;;;;;;;20.80;9.68;;;;;;;;;;10497449;28;20044;-73
2023/03/15 19:04:58;;;;;;;15.63;8.70;;;;;;;;;;10484581;28;20040;-75
2023/03/15 19:10:20;;;;;;;12.10;7.75;;;;;;;;;;10515629;28;20028;-75
2023/03/15 19:15:41;;;;;;;16.13;8.48;;;;;;;;;;10474982;28;20043;-74
2023/03/15 19:21:01;;;;;;;16.77;9.10;;;;;;;;;;10503197;28;20035;-75
2023/03/15 19:26:22;;;;;;;15.68;8.25;;;;;;;;;;10512121;28;20071;-76
2023/03/15 19:31:43;;;;;;;20.10;10.32;;;;;;;;;;10504523;28;20063;-76
2023/03/15 19:37:04;;;;;;;17.60;9.73;;;;;;;;;;10496067;28;20040;-76
2023/03/15 19:42:26;;;;;;;17.90;9.63;;;;;;;;;;10505046;28;20028;-75
2023/03/15 19:47:46;;;;;;;23.35;10.75;;;;;;;;;;10504451;28;21135;-76
2023/03/15 19:53:07;;;;;;;21.88;10.48;;;;;;;;;;10513186;28;20055;-76
2023/03/15 19:58:28;;;;;;;68.05;20.60;;;;;;;;;;10495235;28;20040;-75
2023/03/15 20:03:49;;;;;;;28.02;11.57;;;;;;;;;;10502538;28;20501;-75
2023/03/15 20:09:10;;;;;;;24.10;10.82;;;;;;;;;;10510956;28;20527;-76
2023/03/15 20:14:31;;;;;;;19.75;9.98;;;;;;;;;;10488862;28;20484;-76
2023/03/15 20:19:52;;;;;;;21.30;10.68;;;;;;;;;;10518523;28;20049;-76
2023/03/15 20:25:14;;;;;;;21.40;10.45;;;;;;;;;;10507634;28;20051;-75
2023/03/15 20:30:37;;;;;;;16.00;9.00;;;;;;;;;;10492399;28;20028;-75
2023/03/15 20:35:58;;;;;;;19.88;10.13;;;;;;;;;;10501144;28;20068;-75
2023/03/15 20:41:19;;;;;;;19.58;10.25;;;;;;;;;;10507107;28;20447;-75
2023/03/15 20:46:40;;;;;;;16.50;9.40;;;;;;;;;;10482397;28;20115;-75
2023/03/15 20:52:02;;;;;;;17.48;9.77;;;;;;;;;;10498387;28;20462;-75
2023/03/15 20:57:23;;;;;;;17.35;9.27;;;;;;;;;;10524484;28;20134;-76
2023/03/15 21:02:44;;;;;;;27.55;10.93;;;;;;;;;;10508014;28;20500;-75
2023/03/15 21:08:06;;;;;;;15.90;9.75;;;;;;;;;;10531666;28;20237;-75
2023/03/15 21:13:27;;;;;;;15.05;8.93;;;;;;;;;;10510988;28;20041;-75
2023/03/15 21:18:50;;;;;;;17.90;9.10;;;;;;;;;;10503291;28;20599;-75
2023/03/15 21:24:11;;;;;;;17.40;9.10;;;;;;;;;;10507876;28;20413;-75
2023/03/15 21:29:32;;;;;;;18.60;9.60;;;;;;;;;;10521087;28;20032;-75
2023/03/15 21:34:53;;;;;;;16.42;9.38;;;;;;;;;;10538941;27;20039;-75
2023/03/15 21:40:14;;;;;;;18.40;9.77;;;;;;;;;;10508288;28;20032;-75
2023/03/15 21:45:35;;;;;;;28.27;11.65;;;;;;;;;;10498697;28;20042;-75
2023/03/15 21:50:56;;;;;;;23.55;10.40;;;;;;;;;;10490252;28;20039;-75
2023/03/15 21:56:17;;;;;;;30.27;12.65;;;;;;;;;;10491941;28;20452;-78
2023/03/15 22:01:38;;;;;;;31.50;12.48;;;;;;;;;;10484171;28;20086;-78
2023/03/15 22:06:59;;;;;;;24.38;10.45;;;;;;;;;;10508480;28;20036;-78
2023/03/15 22:12:20;;;;;;;24.25;10.65;;;;;;;;;;10522422;28;20036;-78
2023/03/15 22:17:41;;;;;;;29.02;12.25;;;;;;;;;;10473417;28;20036;-78
2023/03/15 22:23:03;;;;;;;17.17;9.23;;;;;;;;;;10490947;28;20040;-78
2023/03/15 22:28:24;;;;;;;15.38;9.55;;;;;;;;;;10531487;28;20382;-78
2023/03/15 22:33:45;;;;;;;17.55;10.32;;;;;;;;;;10508553;28;20033;-78
2023/03/15 22:39:06;;;;;;;12.63;8.70;;;;;;;;;;10522255;28;20047;-78
2023/03/15 22:44:27;;;;;;;34.65;13.05;;;;;;;;;;10472628;28;22247;-78
2023/03/15 22:49:48;;;;;;;12.18;9.77;;;;;;;;;;10496159;28;20039;-78
2023/03/15 22:55:09;;;;;;;25.80;11.45;;;;;;;;;;10481947;28;20062;-78
2023/03/15 23:00:30;;;;;;;27.92;12.68;;;;;;;;;;10481338;28;20039;-78
2023/03/15 23:05:52;;;;;;;31.48;12.93;;;;;;;;;;10487373;28;20036;-78
2023/03/15 23:11:13;;;;;;;28.02;13.02;;;;;;;;;;10486357;28;20051;-78
2023/03/15 23:16:34;;;;;;;37.42;14.88;;;;;;;;;;10481134;28;20039;-78
2023/03/15 23:21:55;;;;;;;16.77;10.70;;;;;;;;;;10487307;28;20374;-78
2023/03/15 23:27:16;;;;;;;12.63;10.23;;;;;;;;;;10531604;28;20032;-78
2023/03/15 23:32:37;;;;;;;19.23;10.82;;;;;;;;;;10511773;28;20032;-78
2023/03/15 23:37:58;;;;;;;16.05;10.35;;;;;;;;;;10512096;28;20102;-78
2023/03/15 23:43:19;;;;;;;16.33;10.52;;;;;;;;;;10518932;28;20389;-78
2023/03/15 23:48:40;;;;;;;23.00;11.63;;;;;;;;;;10524819;28;20028;-78
2023/03/15 23:54:01;;;;;;;15.40;10.40;;;;;;;;;;10523174;28;20039;-78
2023/03/15 23:59:22;;;;;;;33.83;13.15;;;;;;;;;;10488243;28;20494;-78
